createdAt,value
2019-04-28T00:02:11.116Z,5.50
2019-04-28T00:04:41.612Z,4.70
2019-04-28T00:07:12.034Z,4.87
2019-04-28T00:09:42.533Z,5.30
2019-04-28T00:12:11.923Z,5.10
2019-04-28T00:14:42.349Z,5.00
2019-04-28T00:17:12.866Z,4.90
2019-04-28T00:19:44.487Z,5.23
2019-04-28T00:22:21.003Z,5.10
2019-04-28T00:25:04.465Z,4.80
2019-04-28T00:27:34.699Z,5.33
2019-04-28T00:30:11.655Z,5.27
2019-04-28T00:32:42.692Z,5.20
2019-04-28T00:35:12.786Z,5.40
2019-04-28T00:37:42.620Z,5.87
2019-04-28T00:40:13.423Z,4.93
2019-04-28T00:42:43.492Z,5.57
2019-04-28T00:45:16.120Z,4.20
2019-04-28T00:47:46.023Z,5.20
2019-04-28T00:50:16.633Z,4.70
2019-04-28T00:52:46.726Z,4.73
2019-04-28T00:55:16.465Z,5.23
2019-04-28T00:57:46.109Z,4.60
2019-04-28T01:00:18.404Z,4.70
2019-04-28T01:02:48.655Z,4.67
2019-04-28T01:05:21.363Z,4.67
2019-04-28T01:07:52.739Z,4.53
2019-04-28T01:10:23.236Z,4.20
2019-04-28T01:12:52.880Z,4.90
2019-04-28T01:15:41.412Z,5.10
2019-04-28T01:18:33.681Z,4.60
2019-04-28T01:21:03.407Z,5.10
2019-04-28T01:23:38.018Z,5.43
2019-04-28T01:26:09.948Z,5.03
2019-04-28T01:28:40.190Z,5.70
2019-04-28T01:31:27.282Z,5.33
2019-04-28T01:34:20.346Z,5.37
2019-04-28T01:36:51.679Z,5.90
2019-04-28T01:39:23.322Z,5.20
2019-04-28T01:41:52.973Z,5.73
2019-04-28T01:44:22.903Z,5.83
2019-04-28T01:46:56.320Z,5.10
2019-04-28T01:49:26.071Z,5.50
2019-04-28T01:52:00.892Z,5.70
2019-04-28T01:54:31.098Z,4.90
2019-04-28T01:57:01.698Z,5.43
2019-04-28T01:59:32.990Z,5.60
2019-04-28T02:02:02.580Z,5.50
2019-04-28T02:04:32.704Z,5.33
2019-04-28T02:07:02.264Z,4.93
2019-04-28T02:09:31.928Z,5.90
2019-04-28T02:12:01.973Z,5.90
2019-04-28T02:14:31.786Z,5.23
2019-04-28T02:17:01.441Z,5.33
2019-04-28T02:19:32.990Z,6.00
2019-04-28T02:22:21.688Z,5.47
2019-04-28T02:24:51.487Z,6.03
2019-04-28T02:27:23.706Z,5.97
2019-04-28T02:29:53.090Z,6.30
2019-04-28T02:32:24.452Z,6.63
2019-04-28T02:34:55.581Z,5.97
2019-04-28T02:37:25.682Z,5.23
2019-04-28T02:39:56.326Z,5.47
2019-04-28T02:42:26.272Z,6.23
2019-04-28T02:44:56.012Z,6.60
2019-04-28T02:47:25.856Z,7.03
2019-04-28T02:50:07.258Z,6.63
2019-04-28T02:52:54.619Z,6.23
2019-04-28T02:55:25.809Z,5.97
2019-04-28T02:57:56.744Z,5.93
2019-04-28T03:00:26.423Z,6.33
2019-04-28T03:02:56.363Z,7.10
2019-04-28T03:05:27.000Z,6.73
2019-04-28T03:07:56.899Z,6.50
2019-04-28T03:10:27.258Z,6.60
2019-04-28T03:12:57.657Z,6.70
2019-04-28T03:15:30.181Z,6.10
2019-04-28T03:18:02.085Z,6.07
2019-04-28T03:20:32.478Z,7.50
2019-04-28T03:23:03.118Z,7.30
2019-04-28T03:25:43.019Z,7.47
2019-04-28T03:28:41.406Z,7.60
2019-04-28T03:32:04.268Z,7.90
2019-04-28T03:34:04.109Z,7.80
2019-04-28T03:36:34.249Z,7.87
2019-04-28T03:39:06.660Z,7.57
2019-04-28T03:41:36.484Z,8.20
2019-04-28T03:44:06.649Z,7.40
2019-04-28T03:46:44.025Z,8.50
2019-04-28T03:49:31.993Z,8.40
2019-04-28T03:52:03.796Z,8.30
2019-04-28T03:54:34.041Z,6.57
2019-04-28T03:57:03.838Z,8.50
2019-04-28T03:59:35.558Z,8.50
2019-04-28T04:02:06.904Z,8.10
2019-04-28T04:04:36.981Z,7.07
2019-04-28T04:07:07.356Z,9.20
2019-04-28T04:09:51.494Z,9.70
2019-04-28T04:12:31.962Z,8.80
2019-04-28T04:15:30.941Z,8.77
2019-04-28T04:18:11.030Z,9.13
2019-04-28T04:20:43.467Z,8.57
2019-04-28T04:23:13.330Z,9.50
2019-04-28T04:25:43.183Z,8.77
2019-04-28T04:28:13.362Z,8.73
2019-04-28T04:30:42.995Z,9.27
2019-04-28T04:33:13.127Z,9.03
2019-04-28T04:35:43.639Z,9.77
2019-04-28T04:38:14.691Z,9.67
2019-04-28T04:40:46.850Z,7.20
2019-04-28T04:43:16.528Z,9.50
2019-04-28T04:45:46.630Z,11.10
2019-04-28T04:48:16.733Z,8.33
2019-04-28T04:50:46.944Z,10.50
2019-04-28T04:53:17.368Z,8.80
2019-04-28T04:55:47.090Z,9.03
2019-04-28T04:58:16.712Z,9.60
2019-04-28T05:01:02.551Z,9.53
2019-04-28T05:03:34.970Z,9.43
2019-04-28T05:06:24.377Z,9.90
2019-04-28T05:08:54.007Z,9.90
2019-04-28T05:11:25.444Z,10.53
2019-04-28T05:13:55.888Z,9.47
2019-04-28T05:16:25.550Z,10.20
2019-04-28T05:18:56.405Z,10.73
2019-04-28T05:21:26.082Z,10.53
2019-04-28T05:24:20.093Z,9.80
2019-04-28T05:26:51.702Z,8.10
2019-04-28T05:29:26.692Z,9.33
2019-04-28T05:31:59.747Z,10.53
2019-04-28T05:34:29.666Z,10.20
2019-04-28T05:37:00.712Z,10.87
2019-04-28T05:39:32.014Z,9.33
2019-04-28T05:42:02.386Z,10.87
2019-04-28T05:44:32.612Z,8.83
2019-04-28T05:47:02.215Z,10.50
2019-04-28T05:50:00.220Z,9.40
2019-04-28T05:53:02.324Z,10.37
2019-04-28T05:55:56.505Z,9.83
2019-04-28T05:58:32.151Z,7.33
2019-04-28T06:01:12.885Z,7.93
2019-04-28T06:03:42.850Z,7.73
2019-04-28T06:06:15.729Z,5.67
2019-04-28T06:09:04.277Z,5.53
2019-04-28T06:11:36.794Z,5.27
2019-04-28T06:14:06.484Z,5.23
2019-04-28T06:16:36.896Z,5.50
2019-04-28T06:19:07.438Z,5.70
2019-04-28T06:21:37.787Z,6.10
2019-04-28T06:24:07.758Z,5.73
2019-04-28T06:26:38.378Z,4.83
2019-04-28T06:29:08.776Z,6.77
2019-04-28T06:31:39.998Z,6.57
2019-04-28T06:34:11.651Z,5.87
2019-04-28T06:36:41.418Z,7.30
2019-04-28T06:39:12.057Z,5.57
2019-04-28T06:41:42.264Z,6.37
2019-04-28T06:44:12.077Z,6.57
2019-04-28T06:46:42.838Z,5.60
2019-04-28T06:49:13.213Z,4.30
2019-04-28T06:51:42.836Z,4.93
2019-04-28T06:54:13.253Z,4.93
2019-04-28T06:56:42.772Z,4.73
2019-04-28T06:59:12.588Z,3.30
2019-04-28T07:01:42.407Z,3.40
2019-04-28T07:04:12.480Z,4.30
2019-04-28T07:06:41.899Z,3.97
2019-04-28T07:09:12.961Z,4.40
2019-04-28T07:11:42.565Z,4.13
2019-04-28T07:14:11.998Z,4.03
2019-04-28T07:16:42.878Z,4.10
2019-04-28T07:19:12.258Z,3.67
2019-04-28T07:22:04.447Z,4.37
2019-04-28T07:24:34.682Z,4.80
2019-04-28T07:27:06.620Z,4.17
2019-04-28T07:30:24.628Z,4.67
2019-04-28T07:32:54.469Z,4.23
2019-04-28T07:35:25.789Z,5.10
2019-04-28T07:37:59.534Z,4.80
2019-04-28T07:40:31.449Z,4.90
2019-04-28T07:43:00.995Z,4.30
2019-04-28T07:45:32.801Z,3.73
2019-04-28T07:48:03.754Z,4.43
2019-04-28T07:50:33.257Z,3.93
2019-04-28T07:53:29.720Z,4.37
2019-04-28T07:56:00.303Z,4.53
2019-04-28T07:58:31.110Z,3.63
2019-04-28T08:01:01.427Z,4.07
2019-04-28T08:03:31.172Z,4.03
2019-04-28T08:06:01.423Z,3.70
2019-04-28T08:08:30.808Z,4.50
2019-04-28T08:11:00.384Z,4.77
2019-04-28T08:13:30.214Z,4.33
2019-04-28T08:16:03.359Z,4.00
2019-04-28T08:18:34.312Z,4.10
2019-04-28T08:21:06.619Z,4.27
2019-04-28T08:23:47.263Z,4.03
2019-04-28T08:26:13.879Z,3.07
2019-04-28T08:28:45.040Z,3.80
2019-04-28T08:31:19.512Z,2.87
2019-04-28T08:34:02.299Z,3.73
2019-04-28T08:36:29.142Z,4.00
2019-04-28T08:39:28.297Z,3.90
2019-04-28T08:41:58.362Z,3.97
2019-04-28T08:44:28.183Z,3.77
2019-04-28T08:46:58.797Z,3.87
2019-04-28T08:49:33.905Z,4.13
2019-04-28T08:52:03.480Z,3.90
2019-04-28T08:54:37.509Z,3.90
2019-04-28T08:57:10.252Z,3.57
2019-04-28T08:59:42.553Z,2.90
2019-04-28T09:02:13.343Z,3.50
2019-04-28T09:04:43.262Z,3.17
2019-04-28T09:07:13.816Z,3.67
2019-04-28T09:09:46.007Z,3.97
2019-04-28T09:12:16.183Z,3.50
2019-04-28T09:14:47.770Z,3.57
2019-04-28T09:17:17.406Z,3.97
2019-04-28T09:19:55.933Z,3.87
2019-04-28T09:22:26.308Z,3.40
2019-04-28T09:25:00.882Z,3.53
2019-04-28T09:27:31.159Z,3.30
2019-04-28T09:30:06.978Z,3.20
2019-04-28T09:32:38.893Z,3.57
2019-04-28T09:35:10.581Z,3.00
2019-04-28T09:37:41.628Z,3.60
2019-04-28T09:40:20.838Z,3.50
2019-04-28T09:43:08.373Z,3.30
2019-04-28T09:45:58.800Z,3.27
2019-04-28T09:48:29.846Z,2.93
2019-04-28T09:51:02.634Z,3.80
2019-04-28T09:53:40.033Z,3.13
2019-04-28T09:56:10.165Z,3.53
2019-04-28T09:58:41.364Z,3.63
2019-04-28T10:01:11.329Z,3.87
2019-04-28T10:03:40.858Z,3.30
2019-04-28T10:06:11.092Z,3.30
2019-04-28T10:08:40.507Z,3.53
2019-04-28T10:11:10.947Z,3.10
2019-04-28T10:13:40.468Z,3.50
2019-04-28T10:16:12.271Z,3.10
2019-04-28T10:18:41.975Z,3.60
2019-04-28T10:21:12.935Z,3.40
2019-04-28T10:23:43.679Z,3.20
2019-04-28T10:26:16.167Z,5.80
2019-04-28T10:28:48.756Z,3.60
2019-04-28T10:31:19.019Z,4.40
2019-04-28T10:33:57.226Z,4.13
2019-04-28T10:36:31.349Z,3.30
2019-04-28T10:39:20.462Z,3.13
2019-04-28T10:41:56.803Z,3.33
2019-04-28T10:44:28.468Z,3.57
2019-04-28T10:46:58.791Z,4.00
2019-04-28T10:49:31.349Z,3.90
2019-04-28T10:52:03.950Z,3.30
2019-04-28T10:54:34.476Z,3.27
2019-04-28T10:57:04.907Z,3.63
2019-04-28T10:59:35.541Z,2.70
2019-04-28T11:02:05.416Z,2.97
2019-04-28T11:04:50.852Z,3.10
2019-04-28T11:07:20.736Z,3.30
2019-04-28T11:10:28.891Z,3.47
2019-04-28T11:12:59.009Z,3.97
2019-04-28T11:15:36.863Z,3.70
2019-04-28T11:18:09.535Z,3.37
2019-04-28T11:20:38.983Z,3.73
2019-04-28T11:26:11.300Z,3.40
2019-04-28T11:28:53.202Z,5.97
2019-04-28T11:31:19.461Z,8.33
2019-04-28T11:34:00.969Z,3.03
2019-04-28T11:36:33.169Z,3.07
2019-04-28T11:39:04.915Z,3.17
2019-04-28T11:41:35.777Z,2.67
2019-04-28T11:44:05.839Z,2.90
2019-04-28T11:46:37.942Z,3.30
2019-04-28T11:49:07.621Z,3.47
2019-04-28T11:51:37.915Z,3.53
2019-04-28T11:54:08.920Z,3.33
2019-04-28T11:56:41.548Z,2.97
2019-04-28T11:59:11.240Z,3.30
2019-04-28T12:01:41.018Z,3.30
2019-04-28T12:04:12.895Z,3.43
2019-04-28T12:06:43.594Z,3.17
2019-04-28T12:09:24.198Z,4.27
2019-04-28T12:11:55.187Z,5.83
2019-04-28T12:14:30.525Z,3.87
2019-04-28T12:17:18.616Z,3.50
2019-04-28T12:19:54.301Z,3.77
2019-04-28T12:22:25.298Z,3.33
2019-04-28T12:24:55.645Z,3.20
2019-04-28T12:27:25.828Z,3.27
2019-04-28T12:29:55.256Z,3.10
2019-04-28T12:32:26.870Z,3.43
2019-04-28T12:34:56.812Z,3.57
2019-04-28T12:37:26.465Z,3.20
2019-04-28T12:39:56.648Z,3.77
2019-04-28T12:42:26.306Z,3.53
2019-04-28T12:44:57.516Z,3.60
2019-04-28T12:47:28.645Z,3.40
2019-04-28T12:50:10.482Z,4.00
2019-04-28T12:52:40.418Z,3.40
2019-04-28T12:55:12.799Z,3.67
2019-04-28T12:57:43.733Z,4.20
2019-04-28T13:00:33.511Z,3.80
2019-04-28T13:03:35.510Z,4.30
2019-04-28T13:06:06.908Z,3.80
2019-04-28T13:08:36.355Z,3.90
2019-04-28T13:11:06.125Z,3.97
2019-04-28T13:13:35.887Z,4.03
2019-04-28T13:16:07.620Z,3.93
2019-04-28T13:18:38.919Z,3.83
2019-04-28T13:21:09.107Z,3.80
2019-04-28T13:23:41.086Z,4.00
2019-04-28T13:26:11.163Z,3.80
2019-04-28T13:28:42.001Z,4.33
2019-04-28T13:31:12.418Z,4.20
2019-04-28T13:33:55.947Z,3.70
2019-04-28T13:36:15.420Z,3.63
2019-04-28T13:38:46.134Z,3.93
2019-04-28T13:41:16.819Z,4.37
2019-04-28T13:43:46.941Z,3.90
2019-04-28T13:46:17.915Z,4.17
2019-04-28T13:48:48.132Z,4.03
2019-04-28T13:51:17.650Z,4.20
2019-04-28T13:53:47.730Z,4.57
2019-04-28T13:56:18.005Z,4.57
2019-04-28T13:58:53.501Z,4.50
2019-04-28T14:01:39.290Z,4.13
2019-04-28T14:04:32.431Z,4.40
2019-04-28T14:07:07.489Z,4.37
2019-04-28T14:09:38.639Z,3.60
2019-04-28T14:12:08.696Z,4.40
2019-04-28T14:14:39.508Z,4.00
2019-04-28T14:17:09.893Z,4.60
2019-04-28T14:19:40.089Z,4.23
2019-04-28T14:22:10.926Z,4.03
2019-04-28T14:24:41.743Z,3.70
2019-04-28T14:27:13.190Z,4.73
2019-04-28T14:29:43.144Z,4.70
2019-04-28T14:32:13.368Z,4.57
2019-04-28T14:34:43.166Z,4.20
2019-04-28T14:37:13.409Z,3.73
2019-04-28T14:39:43.308Z,3.13
2019-04-28T14:42:13.877Z,3.60
2019-04-28T14:44:43.770Z,4.33
2019-04-28T14:47:13.554Z,4.00
2019-04-28T14:49:43.933Z,3.40
2019-04-28T14:52:15.067Z,3.67
2019-04-28T14:54:44.669Z,3.30
2019-04-28T14:57:17.173Z,4.33
2019-04-28T14:59:47.834Z,5.50
2019-04-28T15:02:25.125Z,4.70
2019-04-28T15:05:12.745Z,6.20
2019-04-28T15:08:00.756Z,6.10
2019-04-28T15:10:49.962Z,5.93
2019-04-28T15:13:22.413Z,6.53
2019-04-28T15:15:52.438Z,5.43
2019-04-28T15:18:21.921Z,5.70
2019-04-28T15:20:52.360Z,5.53
2019-04-28T15:23:24.927Z,5.50
2019-04-28T15:25:56.837Z,5.73
2019-04-28T15:28:27.301Z,4.70
2019-04-28T15:30:57.269Z,5.20
2019-04-28T15:33:27.976Z,5.13
2019-04-28T15:35:57.776Z,5.03
2019-04-28T15:38:29.722Z,5.40
2019-04-28T15:41:02.544Z,5.13
2019-04-28T15:43:34.660Z,5.43
2019-04-28T15:46:14.102Z,5.77
2019-04-28T15:48:44.681Z,5.50
2019-04-28T15:51:16.023Z,5.60
2019-04-28T15:53:50.190Z,5.50
2019-04-28T15:56:29.330Z,6.60
2019-04-28T15:59:00.523Z,6.10
2019-04-28T16:01:31.458Z,6.53
2019-04-28T16:04:04.559Z,6.10
2019-04-28T16:06:34.319Z,6.20
2019-04-28T16:09:06.949Z,5.80
2019-04-28T16:11:38.507Z,5.80
2019-04-28T16:14:08.201Z,5.37
2019-04-28T16:16:38.754Z,5.20
2019-04-28T16:19:09.214Z,5.77
2019-04-28T16:21:39.336Z,5.57
2019-04-28T16:24:09.649Z,5.43
2019-04-28T16:26:39.130Z,5.30
2019-04-28T16:29:09.231Z,5.83
2019-04-28T16:31:39.108Z,5.57
2019-04-28T16:34:11.358Z,5.90
2019-04-28T16:36:42.116Z,6.13
2019-04-28T16:39:12.581Z,5.57
2019-04-28T16:41:51.105Z,5.87
2019-04-28T16:44:26.389Z,5.80
2019-04-28T16:46:56.534Z,5.40
2019-04-28T16:49:28.380Z,5.60
2019-04-28T16:52:03.015Z,5.20
2019-04-28T16:54:33.497Z,5.00
2019-04-28T16:57:14.527Z,6.03
2019-04-28T16:59:50.009Z,5.40
2019-04-28T17:02:32.124Z,5.53
2019-04-28T17:05:03.755Z,5.07
2019-04-28T17:07:36.981Z,6.00
2019-04-28T17:10:10.594Z,4.03
2019-04-28T17:12:42.917Z,5.37
2019-04-28T17:15:15.403Z,4.87
2019-04-28T17:17:49.744Z,5.13
2019-04-28T17:20:19.972Z,5.20
2019-04-28T17:22:51.364Z,4.73
2019-04-28T17:25:22.828Z,4.90
2019-04-28T17:27:52.755Z,4.70
2019-04-28T17:30:23.684Z,4.97
2019-04-28T17:32:53.851Z,5.20
2019-04-28T17:35:23.601Z,4.50
2019-04-28T17:38:06.038Z,5.47
2019-04-28T17:40:27.579Z,5.00
2019-04-28T17:42:58.825Z,5.63
2019-04-28T17:45:28.962Z,6.07
2019-04-28T17:48:03.582Z,6.40
2019-04-28T17:50:33.805Z,5.47
2019-04-28T17:53:04.655Z,5.10
2019-04-28T17:55:35.117Z,5.97
2019-04-28T17:58:05.153Z,5.20
2019-04-28T18:00:47.894Z,5.43
2019-04-28T18:03:35.000Z,5.90
2019-04-28T18:06:18.206Z,5.23
2019-04-28T18:08:46.568Z,5.60
2019-04-28T18:11:16.573Z,5.70
2019-04-28T18:13:47.426Z,5.87
2019-04-28T18:16:48.798Z,5.47
2019-04-28T18:19:20.106Z,6.43
2019-04-28T18:21:50.653Z,6.30
2019-04-28T18:24:20.940Z,6.30
2019-04-28T18:26:52.399Z,6.43
2019-04-28T18:29:24.188Z,6.50
2019-04-28T18:32:11.818Z,8.13
2019-04-28T18:35:08.471Z,8.60
2019-04-28T18:38:09.404Z,6.93
2019-04-28T18:41:03.495Z,7.10
2019-04-28T18:43:55.076Z,6.80
2019-04-28T18:46:29.162Z,6.67
2019-04-28T18:48:58.889Z,6.60
2019-04-28T18:51:29.990Z,6.40
2019-04-28T18:54:01.908Z,6.47
2019-04-28T18:56:32.244Z,6.90
2019-04-28T18:59:02.027Z,7.53
2019-04-28T19:01:45.687Z,6.70
2019-04-28T19:04:18.812Z,6.40
2019-04-28T19:06:49.545Z,6.90
2019-04-28T19:09:45.713Z,7.70
2019-04-28T19:12:40.186Z,7.17
2019-04-28T19:15:27.810Z,7.60
2019-04-28T19:18:04.860Z,6.93
2019-04-28T19:20:34.385Z,7.60
2019-04-28T19:23:07.253Z,6.10
2019-04-28T19:25:37.803Z,7.30
2019-04-28T19:28:09.454Z,21.47
2019-04-28T19:30:45.745Z,9.97
2019-04-28T19:33:17.405Z,7.67
2019-04-28T19:35:47.408Z,7.63
2019-04-28T19:38:22.051Z,6.97
2019-04-28T19:40:56.516Z,7.13
2019-04-28T19:43:33.218Z,7.80
2019-04-28T19:46:05.709Z,6.90
2019-04-28T19:48:35.871Z,7.67
2019-04-28T19:51:06.440Z,9.30
2019-04-28T19:53:36.592Z,8.87
2019-04-28T19:56:19.463Z,9.37
2019-04-28T19:59:00.516Z,12.10
2019-04-28T20:01:37.878Z,10.93
2019-04-28T20:04:09.403Z,9.90
2019-04-28T20:06:39.717Z,10.60
2019-04-28T20:09:09.800Z,10.70
2019-04-28T20:11:42.648Z,9.90
2019-04-28T20:14:18.889Z,10.13
2019-04-28T20:16:50.312Z,11.30
2019-04-28T20:19:22.946Z,12.10
2019-04-28T20:21:53.247Z,10.60
2019-04-28T20:24:23.116Z,10.07
2019-04-28T20:26:53.940Z,10.33
2019-04-28T20:29:28.267Z,10.60
2019-04-28T20:31:59.764Z,10.07
2019-04-28T20:34:30.789Z,9.63
2019-04-28T20:37:20.080Z,10.23
2019-04-28T20:39:53.933Z,9.07
2019-04-28T20:42:56.538Z,9.10
2019-04-28T20:45:29.157Z,8.90
2019-04-28T20:48:01.297Z,8.87
2019-04-28T20:50:33.873Z,8.47
2019-04-28T20:53:04.283Z,9.20
2019-04-28T20:55:34.904Z,8.40
2019-04-28T20:58:05.158Z,7.60
2019-04-28T21:00:35.498Z,7.50
2019-04-28T21:03:05.637Z,7.93
2019-04-28T21:05:37.773Z,7.90
2019-04-28T21:08:09.846Z,8.07
2019-04-28T21:10:39.860Z,7.70
2019-04-28T21:13:11.145Z,7.93
2019-04-28T21:15:43.408Z,8.73
2019-04-28T21:18:14.814Z,8.83
2019-04-28T21:20:47.407Z,9.10
2019-04-28T21:23:17.810Z,8.10
2019-04-28T21:25:47.605Z,7.23
2019-04-28T21:28:17.773Z,7.87
2019-04-28T21:30:48.019Z,9.40
2019-04-28T21:33:18.457Z,8.63
2019-04-28T21:35:51.800Z,8.70
2019-04-28T21:38:24.705Z,8.73
2019-04-28T21:41:01.012Z,8.10
2019-04-28T21:44:06.342Z,7.60
2019-04-28T21:46:58.357Z,7.23
2019-04-28T21:49:30.227Z,8.77
2019-04-28T21:51:59.707Z,8.17
2019-04-28T21:54:30.086Z,8.70
2019-04-28T21:57:00.073Z,7.77
2019-04-28T21:59:29.833Z,8.70
2019-04-28T22:02:02.336Z,8.10
2019-04-28T22:04:32.048Z,8.47
2019-04-28T22:07:02.909Z,7.90
2019-04-28T22:09:34.054Z,8.07
2019-04-28T22:12:07.785Z,8.10
2019-04-28T22:14:37.543Z,8.70
2019-04-28T22:17:08.216Z,8.30
2019-04-28T22:19:40.715Z,9.00
2019-04-28T22:22:11.394Z,8.07
2019-04-28T22:24:54.094Z,8.10
2019-04-28T22:27:29.146Z,8.93
2019-04-28T22:30:05.719Z,8.63
2019-04-28T22:32:39.367Z,8.77
2019-04-28T22:35:10.811Z,8.30
2019-04-28T22:37:42.401Z,8.17
2019-04-28T22:40:12.270Z,8.67
2019-04-28T22:42:41.958Z,9.17
2019-04-28T22:45:15.055Z,8.27
2019-04-28T22:47:45.536Z,9.03
2019-04-28T22:50:36.145Z,9.20
2019-04-28T22:53:06.307Z,9.20
2019-04-28T22:55:39.867Z,8.73
2019-04-28T22:58:23.585Z,9.40
2019-04-28T23:01:11.995Z,8.70
2019-04-28T23:03:53.153Z,9.33
2019-04-28T23:06:22.670Z,9.70
2019-04-28T23:08:52.736Z,9.13
2019-04-28T23:11:23.243Z,9.90
2019-04-28T23:13:53.425Z,10.37
2019-04-28T23:16:23.906Z,10.37
2019-04-28T23:18:53.661Z,10.73
2019-04-28T23:21:51.897Z,9.83
2019-04-28T23:24:23.011Z,10.23
2019-04-28T23:26:52.623Z,10.37
2019-04-28T23:29:22.614Z,10.13
2019-04-28T23:31:52.493Z,9.93
2019-04-28T23:34:21.981Z,10.57
2019-04-28T23:36:51.772Z,10.80
2019-04-28T23:39:25.372Z,10.90
2019-04-28T23:42:06.977Z,10.87
2019-04-28T23:44:37.541Z,10.87
2019-04-28T23:47:08.131Z,11.20
2019-04-28T23:49:40.075Z,10.73
2019-04-28T23:52:28.685Z,11.03
2019-04-28T23:55:01.024Z,11.47
2019-04-28T23:57:31.247Z,11.43
